Nazyvoevsk, Russia
Current Conditions -  °F | °C
As of 8:30 PM on Thursday 30 Oct 2014 (Local Time) from UNOO Reporting Station
Broken Clouds Broken Clouds  
Wind Chill: 27°   Ceiling: 2200
Heat Index: 36°   Visibility: 6mi
Dew Point: 32°   Wind: 13mph
Humidity: 87%   Direction: 230°SW
Pressure: 30.15"   Gusts: NA
Location:  55.57°N, 71.37°E
Report Text: UNOO 301430Z 23006MPS 9999 BKN022 BKN066 02/00 Q1021 25120060NOSIG RMK QFE757
Loading
Personal Weather Stations






























Interactive Weather Map
Tropical Storm Tracking
New forecast layout! Learn more

10-Day Weather Forecast

Advertisements
Track Severe Weather on mobile